Terminal Aerodrome Forecast
Issued by NWS

Home | Current Version | Previous Version | Text Only | Print | Product List | Glossary On
Versions: 1 2 3 4 5 6 7 8 9 10 11 12 13 14 15 16 17 18 19 20 21 22 23 24 25 26
000
FTUS44 KHGX 050521
TAFUTS
TAF
KUTS 050521Z 0506/0606 15005KT P6SM BKN250
     FM051000 13003KT P6SM SCT015 BKN250
     FM051500 14011KT P6SM VCSH BKN025 PROB30 0516/0518 -SHRA
     FM051800 14014KT P6SM VCTS BKN035CB
      TEMPO 0519/0523 TSRA
     FM060200 14009KT P6SM VCSH SCT035 BKN250=

USA.gov is the U.S. government's official web portal to all federal, state and local government web resources and services.